Gas Grouper — V7TZ2 — position and weather

sailwx.info

Track history (hours):
 
Tides and Currents Weather Stations Pressure Air Temp Water Temp Dewpoint Dewpoint Depression Visibility Wind Speed Wind Dir Waves Ship Positions

Gas Grouper

Last reported at 2015-Jun-12 11:30 UTC. Time now 2015-Jul-04 01:37 UTC.
Position N 25°51' W 079°29'.
Warning: this ship's position is 21 days out of date.

Length 174 m; draft 10.5 m.

Type: Tanker. MMSI: 538003910.

Date/timePositionNaut miles runAvg speedWind from/ knotsBaromVisibWave heightAir tempDewpointWater temp
2015-Jun-12 11:30N 25°51' W 079°29'1111.9
2015-Jun-12 10:33N 26°01' W 079°24'  
2015-Jun-03 22:21N 36°14' W 026°13'1113.9
2015-Jun-03 21:33N 36°13' W 025°59'1413.9
2015-Jun-03 20:34N 36°13' W 025°42'1413.5
2015-Jun-03 19:33N 36°13' W 025°25'1413.8
2015-Jun-03 18:33N 36°12' W 025°08'1312.9
2015-Jun-03 17:33N 36°11' W 024°52'1413.8
2015-Jun-03 16:33N 36°11' W 024°35'1413.7
2015-Jun-03 15:33N 36°11' W 024°18'1413.6
2015-Jun-03 14:33N 36°10' W 024°01'  
Track history (hours):
 
Tides and Currents Weather Stations Pressure Air Temp Water Temp Dewpoint Dewpoint Depression Visibility Wind Speed Wind Dir Waves Ship Positions

Gas Grouper

Last reported at 2015-Jun-12 11:30 UTC. Time now 2015-Jul-04 01:37 UTC.
Position N 25°51' W 079°29'.
Warning: this ship's position is 21 days out of date.

Length 174 m; draft 10.5 m.

Type: Tanker. MMSI: 538003910.

Date/timePositionNaut miles runAvg speedWind from/ knotsBaromVisibWave heightAir tempDewpointWater temp
2015-Jun-12 11:30N 25°51' W 079°29'1111.9
2015-Jun-12 10:33N 26°01' W 079°24'  
2015-Jun-03 22:21N 36°14' W 026°13'1113.9
2015-Jun-03 21:33N 36°13' W 025°59'1413.9
2015-Jun-03 20:34N 36°13' W 025°42'1413.5
2015-Jun-03 19:33N 36°13' W 025°25'1413.8
2015-Jun-03 18:33N 36°12' W 025°08'1312.9
2015-Jun-03 17:33N 36°11' W 024°52'1413.8
2015-Jun-03 16:33N 36°11' W 024°35'1413.7
2015-Jun-03 15:33N 36°11' W 024°18'1413.6
2015-Jun-03 14:33N 36°10' W 024°01'  

Dump ship's entire track history